sensor_id;sensor_type;location;lat;lon;timestamp;pressure;altitude;pressure_sealevel;temperature;humidity
54808;BME280;40708;50.364;7.550;2023-06-19T00:00:37;99862.56;;;21.67;100.00
54808;BME280;40708;50.364;7.550;2023-06-19T00:03:04;99863.94;;;21.58;100.00
54808;BME280;40708;50.364;7.550;2023-06-19T00:05:30;99864.19;;;21.54;100.00
54808;BME280;40708;50.364;7.550;2023-06-19T00:07:55;99877.06;;;21.49;100.00
54808;BME280;40708;50.364;7.550;2023-06-19T00:10:20;99880.81;;;21.46;100.00
54808;BME280;40708;50.364;7.550;2023-06-19T00:12:46;99876.34;;;21.45;100.00
54808;BME280;40708;50.364;7.550;2023-06-19T00:15:11;99892.94;;;21.38;100.00
54808;BME280;40708;50.364;7.550;2023-06-19T00:17:37;99920.88;;;21.36;100.00
54808;BME280;40708;50.364;7.550;2023-06-19T00:20:04;99930.47;;;21.42;100.00
54808;BME280;40708;50.364;7.550;2023-06-19T00:22:33;99890.34;;;21.69;100.00
54808;BME280;40708;50.364;7.550;2023-06-19T00:24:58;99883.53;;;21.79;100.00
54808;BME280;40708;50.364;7.550;2023-06-19T00:27:23;99883.44;;;21.80;100.00
54808;BME280;40708;50.364;7.550;2023-06-19T00:29:50;99883.19;;;21.85;100.00
54808;BME280;40708;50.364;7.550;2023-06-19T00:32:16;99874.88;;;21.89;100.00
54808;BME280;40708;50.364;7.550;2023-06-19T00:34:41;99857.13;;;22.01;100.00
54808;BME280;40708;50.364;7.550;2023-06-19T00:37:08;99859.47;;;22.07;100.00
54808;BME280;40708;50.364;7.550;2023-06-19T00:39:35;99859.28;;;22.10;100.00
54808;BME280;40708;50.364;7.550;2023-06-19T00:42:00;99879.84;;;22.13;100.00
54808;BME280;40708;50.364;7.550;2023-06-19T00:44:26;99871.59;;;22.16;100.00
54808;BME280;40708;50.364;7.550;2023-06-19T00:46:56;99882.41;;;22.16;100.00
54808;BME280;40708;50.364;7.550;2023-06-19T00:49:22;99881.06;;;22.07;100.00
54808;BME280;40708;50.364;7.550;2023-06-19T00:51:47;99886.75;;;22.03;100.00
54808;BME280;40708;50.364;7.550;2023-06-19T00:54:13;99888.66;;;22.01;100.00
54808;BME280;40708;50.364;7.550;2023-06-19T00:56:38;99877.06;;;21.99;100.00
54808;BME280;40708;50.364;7.550;2023-06-19T00:59:08;99884.47;;;21.95;100.00
54808;BME280;40708;50.364;7.550;2023-06-19T01:01:37;99892.78;;;21.90;100.00
54808;BME280;40708;50.364;7.550;2023-06-19T01:04:02;99895.59;;;21.89;100.00
54808;BME280;40708;50.364;7.550;2023-06-19T01:06:40;99913.56;;;21.90;100.00
54808;BME280;40708;50.364;7.550;2023-06-19T01:09:11;99916.16;;;21.91;100.00
54808;BME280;40708;50.364;7.550;2023-06-19T01:11:43;99910.59;;;21.94;100.00
54808;BME280;40708;50.364;7.550;2023-06-19T01:14:14;99908.50;;;22.00;100.00
54808;BME280;40708;50.364;7.550;2023-06-19T01:16:41;99905.31;;;22.09;100.00
54808;BME280;40708;50.364;7.550;2023-06-19T01:19:09;99896.78;;;22.16;100.00
54808;BME280;40708;50.364;7.550;2023-06-19T01:21:35;99902.19;;;22.16;100.00
54808;BME280;40708;50.364;7.550;2023-06-19T01:24:02;99900.19;;;22.20;100.00
54808;BME280;40708;50.364;7.550;2023-06-19T01:26:27;99899.31;;;22.19;100.00
54808;BME280;40708;50.364;7.550;2023-06-19T01:28:53;99884.88;;;22.20;100.00
54808;BME280;40708;50.364;7.550;2023-06-19T01:31:42;99884.75;;;22.22;100.00
54808;BME280;40708;50.364;7.550;2023-06-19T01:34:12;99883.88;;;22.21;100.00
54808;BME280;40708;50.364;7.550;2023-06-19T01:36:39;99892.09;;;22.20;100.00
54808;BME280;40708;50.364;7.550;2023-06-19T01:39:06;99899.59;;;22.15;100.00
54808;BME280;40708;50.364;7.550;2023-06-19T01:41:33;99921.13;;;21.99;100.00
54808;BME280;40708;50.364;7.550;2023-06-19T01:43:59;99929.66;;;21.91;100.00
54808;BME280;40708;50.364;7.550;2023-06-19T01:46:25;99933.16;;;21.93;100.00
54808;BME280;40708;50.364;7.550;2023-06-19T01:48:51;99938.66;;;21.92;100.00
54808;BME280;40708;50.364;7.550;2023-06-19T01:51:17;99939.69;;;21.89;100.00
54808;BME280;40708;50.364;7.550;2023-06-19T01:53:42;99935.22;;;21.88;100.00
54808;BME280;40708;50.364;7.550;2023-06-19T01:56:08;99935.34;;;21.85;100.00
54808;BME280;40708;50.364;7.550;2023-06-19T01:58:33;99936.66;;;21.78;100.00
54808;BME280;40708;50.364;7.550;2023-06-19T02:00:58;99942.84;;;21.80;100.00
54808;BME280;40708;50.364;7.550;2023-06-19T02:03:23;99951.19;;;21.76;100.00
54808;BME280;40708;50.364;7.550;2023-06-19T02:05:49;99957.78;;;21.70;100.00
54808;BME280;40708;50.364;7.550;2023-06-19T02:08:14;99957.78;;;21.70;100.00
54808;BME280;40708;50.364;7.550;2023-06-19T02:10:39;99967.97;;;21.65;100.00
54808;BME280;40708;50.364;7.550;2023-06-19T02:13:05;99972.56;;;21.63;100.00
54808;BME280;40708;50.364;7.550;2023-06-19T02:15:30;99979.84;;;21.61;100.00
54808;BME280;40708;50.364;7.550;2023-06-19T02:17:56;99972.56;;;21.63;100.00
54808;BME280;40708;50.364;7.550;2023-06-19T02:20:22;99978.28;;;21.57;100.00
54808;BME280;40708;50.364;7.550;2023-06-19T02:22:49;99970.09;;;21.59;100.00
54808;BME280;40708;50.364;7.550;2023-06-19T02:25:15;99978.50;;;21.53;100.00
54808;BME280;40708;50.364;7.550;2023-06-19T02:27:40;99985.31;;;21.43;100.00
54808;BME280;40708;50.364;7.550;2023-06-19T02:30:06;99978.09;;;21.43;100.00
54808;BME280;40708;50.364;7.550;2023-06-19T02:32:31;99984.69;;;21.38;100.00
54808;BME280;40708;50.364;7.550;2023-06-19T02:34:57;99989.47;;;21.32;100.00
54808;BME280;40708;50.364;7.550;2023-06-19T02:37:22;99979.75;;;21.28;100.00
54808;BME280;40708;50.364;7.550;2023-06-19T02:39:48;99978.09;;;21.26;100.00
54808;BME280;40708;50.364;7.550;2023-06-19T02:42:13;99994.56;;;21.20;100.00
54808;BME280;40708;50.364;7.550;2023-06-19T02:44:39;100012.91;;;21.13;100.00
54808;BME280;40708;50.364;7.550;2023-06-19T02:47:05;100021.16;;;21.10;100.00
54808;BME280;40708;50.364;7.550;2023-06-19T02:49:31;100038.34;;;21.08;100.00
54808;BME280;40708;50.364;7.550;2023-06-19T02:51:56;100042.00;;;21.07;100.00
54808;BME280;40708;50.364;7.550;2023-06-19T02:54:21;100070.09;;;21.01;100.00
54808;BME280;40708;50.364;7.550;2023-06-19T02:56:46;100064.78;;;21.00;100.00
54808;BME280;40708;50.364;7.550;2023-06-19T02:59:12;100074.78;;;20.98;100.00
54808;BME280;40708;50.364;7.550;2023-06-19T03:01:37;100066.59;;;20.99;100.00
54808;BME280;40708;50.364;7.550;2023-06-19T03:04:02;100072.00;;;20.99;100.00
54808;BME280;40708;50.364;7.550;2023-06-19T03:06:28;100086.59;;;20.95;100.00
54808;BME280;40708;50.364;7.550;2023-06-19T03:08:53;100101.91;;;20.95;100.00
54808;BME280;40708;50.364;7.550;2023-06-19T03:11:19;100117.19;;;20.94;100.00
54808;BME280;40708;50.364;7.550;2023-06-19T03:13:46;100115.56;;;20.90;100.00
54808;BME280;40708;50.364;7.550;2023-06-19T03:16:12;100118.34;;;20.89;100.00
54808;BME280;40708;50.364;7.550;2023-06-19T03:18:37;100141.00;;;20.85;100.00
54808;BME280;40708;50.364;7.550;2023-06-19T03:21:03;100146.63;;;20.80;100.00
54808;BME280;40708;50.364;7.550;2023-06-19T03:23:28;100155.63;;;20.79;100.00
54808;BME280;40708;50.364;7.550;2023-06-19T03:25:53;100169.34;;;20.74;100.00
54808;BME280;40708;50.364;7.550;2023-06-19T03:28:19;100173.84;;;20.74;100.00
54808;BME280;40708;50.364;7.550;2023-06-19T03:30:44;100173.06;;;20.72;100.00
54808;BME280;40708;50.364;7.550;2023-06-19T03:33:09;100187.47;;;20.71;100.00
54808;BME280;40708;50.364;7.550;2023-06-19T03:35:34;100185.72;;;20.70;100.00
54808;BME280;40708;50.364;7.550;2023-06-19T03:38:00;100182.94;;;20.71;100.00
54808;BME280;40708;50.364;7.550;2023-06-19T03:40:25;100174.81;;;20.73;100.00
54808;BME280;40708;50.364;7.550;2023-06-19T03:42:50;100181.00;;;20.75;100.00
54808;BME280;40708;50.364;7.550;2023-06-19T03:45:16;100179.31;;;20.72;100.00
54808;BME280;40708;50.364;7.550;2023-06-19T03:47:41;100178.66;;;20.67;100.00
54808;BME280;40708;50.364;7.550;2023-06-19T03:50:07;100186.75;;;20.67;100.00
54808;BME280;40708;50.364;7.550;2023-06-19T03:52:35;100198.72;;;20.60;100.00
54808;BME280;40708;50.364;7.550;2023-06-19T03:55:01;100200.50;;;20.61;100.00
54808;BME280;40708;50.364;7.550;2023-06-19T03:57:26;100214.38;;;20.52;100.00
54808;BME280;40708;50.364;7.550;2023-06-19T03:59:52;100213.44;;;20.53;100.00
54808;BME280;40708;50.364;7.550;2023-06-19T04:02:19;100205.34;;;20.53;100.00
54808;BME280;40708;50.364;7.550;2023-06-19T04:04:44;100208.84;;;20.55;100.00
54808;BME280;40708;50.364;7.550;2023-06-19T04:07:09;100193.16;;;20.65;100.00
54808;BME280;40708;50.364;7.550;2023-06-19T04:09:34;100198.94;;;20.76;100.00
54808;BME280;40708;50.364;7.550;2023-06-19T04:12:00;100203.09;;;20.83;100.00
54808;BME280;40708;50.364;7.550;2023-06-19T04:14:25;100207.44;;;20.87;100.00
54808;BME280;40708;50.364;7.550;2023-06-19T04:16:50;100221.34;;;20.97;100.00
54808;BME280;40708;50.364;7.550;2023-06-19T04:19:15;100207.66;;;21.01;100.00
54808;BME280;40708;50.364;7.550;2023-06-19T04:21:41;100220.66;;;21.12;100.00
54808;BME280;40708;50.364;7.550;2023-06-19T04:24:06;100213.34;;;21.34;100.00
54808;BME280;40708;50.364;7.550;2023-06-19T04:26:34;100196.19;;;21.54;100.00
54808;BME280;40708;50.364;7.550;2023-06-19T04:29:00;100206.78;;;21.40;100.00
54808;BME280;40708;50.364;7.550;2023-06-19T04:31:26;100206.25;;;21.50;100.00
54808;BME280;40708;50.364;7.550;2023-06-19T04:33:51;100208.31;;;21.45;100.00
54808;BME280;40708;50.364;7.550;2023-06-19T04:36:17;100223.09;;;21.36;100.00
54808;BME280;40708;50.364;7.550;2023-06-19T04:38:44;100236.81;;;21.32;100.00
54808;BME280;40708;50.364;7.550;2023-06-19T04:41:10;100230.41;;;21.34;100.00
54808;BME280;40708;50.364;7.550;2023-06-19T04:43:35;100236.03;;;21.30;100.00
54808;BME280;40708;50.364;7.550;2023-06-19T04:46:00;100238.50;;;21.34;100.00
54808;BME280;40708;50.364;7.550;2023-06-19T04:48:28;100255.78;;;21.30;100.00
54808;BME280;40708;50.364;7.550;2023-06-19T04:50:54;100253.81;;;21.34;100.00
54808;BME280;40708;50.364;7.550;2023-06-19T04:53:21;100261.91;;;21.34;100.00
54808;BME280;40708;50.364;7.550;2023-06-19T04:55:46;100266.59;;;21.30;100.00
54808;BME280;40708;50.364;7.550;2023-06-19T04:58:11;100274.69;;;21.30;100.00
54808;BME280;40708;50.364;7.550;2023-06-19T05:00:36;100283.75;;;21.28;100.00
54808;BME280;40708;50.364;7.550;2023-06-19T05:03:02;100291.72;;;21.31;100.00
54808;BME280;40708;50.364;7.550;2023-06-19T05:05:28;100297.66;;;21.39;100.00
54808;BME280;40708;50.364;7.550;2023-06-19T05:07:53;100302.34;;;21.54;100.00
54808;BME280;40708;50.364;7.550;2023-06-19T05:10:19;100288.22;;;21.86;100.00
54808;BME280;40708;50.364;7.550;2023-06-19T05:12:44;100272.94;;;22.04;100.00
54808;BME280;40708;50.364;7.550;2023-06-19T05:15:10;100265.88;;;22.54;100.00
54808;BME280;40708;50.364;7.550;2023-06-19T05:17:36;100217.66;;;23.30;100.00
54808;BME280;40708;50.364;7.550;2023-06-19T05:20:07;100154.84;;;23.72;100.00
54808;BME280;40708;50.364;7.550;2023-06-19T05:22:32;100151.50;;;23.82;100.00
54808;BME280;40708;50.364;7.550;2023-06-19T05:24:59;100144.81;;;24.03;100.00
54808;BME280;40708;50.364;7.550;2023-06-19T05:27:25;100146.69;;;23.87;100.00
54808;BME280;40708;50.364;7.550;2023-06-19T05:29:50;100148.44;;;23.88;100.00
54808;BME280;40708;50.364;7.550;2023-06-19T05:32:15;100151.28;;;24.16;100.00
54808;BME280;40708;50.364;7.550;2023-06-19T05:34:40;100144.59;;;24.22;100.00
54808;BME280;40708;50.364;7.550;2023-06-19T05:37:06;100154.13;;;24.29;100.00
54808;BME280;40708;50.364;7.550;2023-06-19T05:39:31;100151.13;;;24.77;100.00
54808;BME280;40708;50.364;7.550;2023-06-19T05:41:56;100131.00;;;24.96;100.00
54808;BME280;40708;50.364;7.550;2023-06-19T05:44:21;100121.78;;;24.98;100.00
54808;BME280;40708;50.364;7.550;2023-06-19T05:46:47;100133.50;;;24.84;100.00
54808;BME280;40708;50.364;7.550;2023-06-19T05:49:12;100163.09;;;24.15;100.00
54808;BME280;40708;50.364;7.550;2023-06-19T05:51:37;100199.38;;;23.82;100.00
54808;BME280;40708;50.364;7.550;2023-06-19T05:54:03;100191.88;;;24.02;100.00
54808;BME280;40708;50.364;7.550;2023-06-19T05:56:32;100191.50;;;24.24;100.00
54808;BME280;40708;50.364;7.550;2023-06-19T05:58:58;100179.81;;;24.38;100.00
54808;BME280;40708;50.364;7.550;2023-06-19T06:01:25;100201.91;;;23.85;100.00
54808;BME280;40708;50.364;7.550;2023-06-19T06:03:53;100208.19;;;24.01;100.00
54808;BME280;40708;50.364;7.550;2023-06-19T06:06:19;100192.56;;;24.21;100.00
54808;BME280;40708;50.364;7.550;2023-06-19T06:08:44;100198.69;;;23.94;100.00
54808;BME280;40708;50.364;7.550;2023-06-19T06:11:09;100212.66;;;23.70;100.00
54808;BME280;40708;50.364;7.550;2023-06-19T06:13:34;100237.47;;;23.79;100.00
54808;BME280;40708;50.364;7.550;2023-06-19T06:16:00;100213.00;;;23.96;100.00
54808;BME280;40708;50.364;7.550;2023-06-19T06:18:26;100204.19;;;23.92;100.00
54808;BME280;40708;50.364;7.550;2023-06-19T06:20:51;100196.22;;;24.20;100.00
54808;BME280;40708;50.364;7.550;2023-06-19T06:23:16;100192.16;;;24.43;100.00
54808;BME280;40708;50.364;7.550;2023-06-19T06:25:42;100182.09;;;24.59;100.00
54808;BME280;40708;50.364;7.550;2023-06-19T06:28:07;100188.59;;;24.71;100.00
54808;BME280;40708;50.364;7.550;2023-06-19T06:30:32;100167.53;;;25.04;100.00
54808;BME280;40708;50.364;7.550;2023-06-19T06:32:58;100164.38;;;24.68;100.00
54808;BME280;40708;50.364;7.550;2023-06-19T06:35:23;100164.19;;;24.71;100.00
54808;BME280;40708;50.364;7.550;2023-06-19T06:37:48;100180.00;;;24.35;100.00
54808;BME280;40708;50.364;7.550;2023-06-19T06:40:15;100174.41;;;24.38;100.00
54808;BME280;40708;50.364;7.550;2023-06-19T06:42:40;100180.44;;;24.27;100.00
54808;BME280;40708;50.364;7.550;2023-06-19T06:45:06;100188.88;;;24.22;100.00
54808;BME280;40708;50.364;7.550;2023-06-19T06:47:32;100168.00;;;24.82;100.00
54808;BME280;40708;50.364;7.550;2023-06-19T06:49:58;100151.31;;;25.17;100.00
54808;BME280;40708;50.364;7.550;2023-06-19T06:52:23;100142.19;;;25.87;100.00
54808;BME280;40708;50.364;7.550;2023-06-19T06:54:49;100125.69;;;26.29;100.00
54808;BME280;40708;50.364;7.550;2023-06-19T06:57:14;100129.28;;;26.30;100.00
54808;BME280;40708;50.364;7.550;2023-06-19T06:59:39;100113.59;;;26.21;100.00
54808;BME280;40708;50.364;7.550;2023-06-19T07:02:05;100118.03;;;25.56;100.00
54808;BME280;40708;50.364;7.550;2023-06-19T07:04:30;100125.78;;;25.62;100.00
54808;BME280;40708;50.364;7.550;2023-06-19T07:06:56;100128.25;;;25.38;100.00
54808;BME280;40708;50.364;7.550;2023-06-19T07:09:23;100119.94;;;25.68;100.00
54808;BME280;40708;50.364;7.550;2023-06-19T07:11:48;100123.38;;;25.84;100.00
54808;BME280;40708;50.364;7.550;2023-06-19T07:14:14;100126.84;;;25.86;100.00
54808;BME280;40708;50.364;7.550;2023-06-19T07:16:43;100133.72;;;25.91;100.00
54808;BME280;40708;50.364;7.550;2023-06-19T07:19:08;100132.59;;;25.81;100.00
54808;BME280;40708;50.364;7.550;2023-06-19T07:21:33;100123.00;;;26.54;100.00
54808;BME280;40708;50.364;7.550;2023-06-19T07:23:58;100133.78;;;26.56;100.00
54808;BME280;40708;50.364;7.550;2023-06-19T07:26:24;100138.63;;;26.26;100.00
54808;BME280;40708;50.364;7.550;2023-06-19T07:28:49;100130.41;;;26.65;100.00
54808;BME280;40708;50.364;7.550;2023-06-19T07:31:15;100127.47;;;26.55;100.00
54808;BME280;40708;50.364;7.550;2023-06-19T07:33:40;100116.03;;;26.50;100.00
54808;BME280;40708;50.364;7.550;2023-06-19T07:36:05;100115.72;;;27.05;100.00
54808;BME280;40708;50.364;7.550;2023-06-19T07:38:31;100092.84;;;27.57;100.00
54808;BME280;40708;50.364;7.550;2023-06-19T07:40:56;100096.38;;;27.94;100.00
54808;BME280;40708;50.364;7.550;2023-06-19T07:43:22;100092.59;;;28.42;100.00
54808;BME280;40708;50.364;7.550;2023-06-19T07:45:48;100098.44;;;28.60;100.00
54808;BME280;40708;50.364;7.550;2023-06-19T07:48:13;100102.75;;;28.29;100.00
54808;BME280;40708;50.364;7.550;2023-06-19T07:50:38;100100.41;;;28.47;100.00
54808;BME280;40708;50.364;7.550;2023-06-19T07:53:03;100091.19;;;28.82;100.00
54808;BME280;40708;50.364;7.550;2023-06-19T07:55:29;100082.19;;;29.58;100.00
54808;BME280;40708;50.364;7.550;2023-06-19T07:57:54;100082.22;;;29.47;100.00
54808;BME280;40708;50.364;7.550;2023-06-19T08:00:22;100088.88;;;29.65;100.00
54808;BME280;40708;50.364;7.550;2023-06-19T08:02:47;100089.38;;;30.34;100.00
54808;BME280;40708;50.364;7.550;2023-06-19T08:05:13;100097.91;;;30.20;100.00
54808;BME280;40708;50.364;7.550;2023-06-19T08:07:38;100093.97;;;30.33;100.00
54808;BME280;40708;50.364;7.550;2023-06-19T08:10:04;100098.81;;;30.41;100.00
54808;BME280;40708;50.364;7.550;2023-06-19T08:12:30;100096.28;;;29.42;100.00
54808;BME280;40708;50.364;7.550;2023-06-19T08:14:55;100094.84;;;29.81;100.00
54808;BME280;40708;50.364;7.550;2023-06-19T08:17:21;100100.66;;;30.61;100.00
54808;BME280;40708;50.364;7.550;2023-06-19T08:19:47;100100.63;;;30.51;100.00
54808;BME280;40708;50.364;7.550;2023-06-19T08:22:12;100089.38;;;30.75;100.00
54808;BME280;40708;50.364;7.550;2023-06-19T08:24:37;100079.50;;;31.54;100.00
54808;BME280;40708;50.364;7.550;2023-06-19T08:27:05;100077.38;;;31.37;100.00
54808;BME280;40708;50.364;7.550;2023-06-19T08:29:30;100084.78;;;32.14;97.68
54808;BME280;40708;50.364;7.550;2023-06-19T08:31:55;100078.25;;;32.34;98.12
54808;BME280;40708;50.364;7.550;2023-06-19T08:34:21;100080.41;;;31.73;100.00
54808;BME280;40708;50.364;7.550;2023-06-19T08:36:46;100086.16;;;31.80;100.00
54808;BME280;40708;50.364;7.550;2023-06-19T08:39:11;100084.88;;;32.32;96.77
54808;BME280;40708;50.364;7.550;2023-06-19T08:41:37;100078.09;;;32.55;95.57
54808;BME280;40708;50.364;7.550;2023-06-19T08:44:05;100079.56;;;31.83;96.60
54808;BME280;40708;50.364;7.550;2023-06-19T08:46:30;100084.81;;;31.06;100.00
54808;BME280;40708;50.364;7.550;2023-06-19T08:48:56;100096.22;;;31.11;100.00
54808;BME280;40708;50.364;7.550;2023-06-19T08:51:22;100092.25;;;30.74;100.00
54808;BME280;40708;50.364;7.550;2023-06-19T08:53:49;100093.06;;;31.74;100.00
54808;BME280;40708;50.364;7.550;2023-06-19T08:56:18;100091.09;;;31.86;99.00
54808;BME280;40708;50.364;7.550;2023-06-19T08:58:43;100097.38;;;31.18;100.00
54808;BME280;40708;50.364;7.550;2023-06-19T09:01:08;100104.06;;;31.25;100.00
54808;BME280;40708;50.364;7.550;2023-06-19T09:03:34;100086.06;;;32.95;93.50
54808;BME280;40708;50.364;7.550;2023-06-19T09:06:08;100075.19;;;33.13;86.87
54808;BME280;40708;50.364;7.550;2023-06-19T09:08:34;100082.06;;;33.53;81.10
54808;BME280;40708;50.364;7.550;2023-06-19T09:11:01;100091.84;;;31.39;98.59
54808;BME280;40708;50.364;7.550;2023-06-19T09:13:27;100097.00;;;31.22;100.00
54808;BME280;40708;50.364;7.550;2023-06-19T09:16:02;100091.91;;;31.18;100.00
54808;BME280;40708;50.364;7.550;2023-06-19T09:18:41;100098.69;;;31.14;100.00
54808;BME280;40708;50.364;7.550;2023-06-19T09:21:15;100093.41;;;31.01;100.00
54808;BME280;40708;50.364;7.550;2023-06-19T09:23:41;100088.88;;;31.11;100.00
54808;BME280;40708;50.364;7.550;2023-06-19T09:26:06;100094.84;;;30.75;100.00
54808;BME280;40708;50.364;7.550;2023-06-19T09:28:32;100090.84;;;30.58;100.00
54808;BME280;40708;50.364;7.550;2023-06-19T09:30:59;100080.88;;;30.78;100.00
54808;BME280;40708;50.364;7.550;2023-06-19T09:33:29;100091.59;;;30.91;100.00
54808;BME280;40708;50.364;7.550;2023-06-19T09:35:56;100086.53;;;31.07;100.00
54808;BME280;40708;50.364;7.550;2023-06-19T09:38:26;100085.31;;;30.70;100.00
54808;BME280;40708;50.364;7.550;2023-06-19T09:40:52;100087.81;;;31.03;100.00
54808;BME280;40708;50.364;7.550;2023-06-19T09:43:25;100077.97;;;32.28;93.35
54808;BME280;40708;50.364;7.550;2023-06-19T09:45:54;100081.09;;;31.75;92.08
54808;BME280;40708;50.364;7.550;2023-06-19T09:48:27;100089.16;;;31.48;92.95
54808;BME280;40708;50.364;7.550;2023-06-19T09:50:55;100089.19;;;31.67;96.08
54808;BME280;40708;50.364;7.550;2023-06-19T09:53:24;100082.25;;;32.69;85.46
54808;BME280;40708;50.364;7.550;2023-06-19T09:55:50;100081.41;;;32.49;88.14
54808;BME280;40708;50.364;7.550;2023-06-19T09:58:18;100093.66;;;32.74;80.76
54808;BME280;40708;50.364;7.550;2023-06-19T10:00:44;100083.16;;;31.93;88.21
54808;BME280;40708;50.364;7.550;2023-06-19T10:03:13;100086.34;;;32.07;87.45
54808;BME280;40708;50.364;7.550;2023-06-19T10:05:39;100098.97;;;31.11;93.63
54808;BME280;40708;50.364;7.550;2023-06-19T10:08:05;100094.06;;;31.64;88.52
54808;BME280;40708;50.364;7.550;2023-06-19T10:10:31;100081.75;;;32.17;85.55
54808;BME280;40708;50.364;7.550;2023-06-19T10:12:59;100088.81;;;31.42;95.37
54808;BME280;40708;50.364;7.550;2023-06-19T10:15:29;100089.94;;;31.39;94.89
54808;BME280;40708;50.364;7.550;2023-06-19T10:18:04;100089.53;;;31.04;94.12
54808;BME280;40708;50.364;7.550;2023-06-19T10:20:32;100076.63;;;31.65;91.08
54808;BME280;40708;50.364;7.550;2023-06-19T10:26:01;100098.41;;;30.66;100.00
54808;BME280;40708;50.364;7.550;2023-06-19T10:28:32;100089.97;;;30.79;100.00
54808;BME280;40708;50.364;7.550;2023-06-19T10:33:27;100077.50;;;31.75;88.45
54808;BME280;40708;50.364;7.550;2023-06-19T10:35:53;100075.47;;;31.58;88.35
54808;BME280;40708;50.364;7.550;2023-06-19T10:38:18;100077.50;;;31.25;94.81
54808;BME280;40708;50.364;7.550;2023-06-19T10:40:44;100071.50;;;31.41;94.36
54808;BME280;40708;50.364;7.550;2023-06-19T10:43:11;100066.56;;;31.35;88.53
54808;BME280;40708;50.364;7.550;2023-06-19T10:45:37;100063.63;;;31.57;91.41
54808;BME280;40708;50.364;7.550;2023-06-19T10:48:04;100061.38;;;31.32;91.15
54808;BME280;40708;50.364;7.550;2023-06-19T10:50:33;100061.31;;;31.72;88.87
54808;BME280;40708;50.364;7.550;2023-06-19T10:53:00;100059.91;;;32.16;80.49
54808;BME280;40708;50.364;7.550;2023-06-19T10:55:25;100065.72;;;31.35;89.91
54808;BME280;40708;50.364;7.550;2023-06-19T10:57:50;100062.13;;;31.04;90.23
54808;BME280;40708;50.364;7.550;2023-06-19T11:00:27;100068.63;;;30.82;90.85
54808;BME280;40708;50.364;7.550;2023-06-19T11:02:53;100066.38;;;30.87;91.28
54808;BME280;40708;50.364;7.550;2023-06-19T11:05:23;100050.06;;;31.16;92.72
54808;BME280;40708;50.364;7.550;2023-06-19T11:07:56;100052.84;;;31.85;86.25
54808;BME280;40708;50.364;7.550;2023-06-19T11:10:26;100052.03;;;31.44;80.45
54808;BME280;40708;50.364;7.550;2023-06-19T11:12:57;100044.75;;;31.93;78.96
54808;BME280;40708;50.364;7.550;2023-06-19T11:15:30;100060.88;;;31.57;85.49
54808;BME280;40708;50.364;7.550;2023-06-19T11:17:56;100050.13;;;31.45;82.69
54808;BME280;40708;50.364;7.550;2023-06-19T11:20:22;100049.56;;;31.41;83.69
54808;BME280;40708;50.364;7.550;2023-06-19T11:22:47;100048.03;;;31.67;79.00
54808;BME280;40708;50.364;7.550;2023-06-19T11:25:19;100039.94;;;31.47;84.23
54808;BME280;40708;50.364;7.550;2023-06-19T11:27:45;100036.09;;;31.29;85.91
54808;BME280;40708;50.364;7.550;2023-06-19T11:30:17;100040.75;;;31.38;85.59
54808;BME280;40708;50.364;7.550;2023-06-19T11:32:42;100037.94;;;30.48;93.12
54808;BME280;40708;50.364;7.550;2023-06-19T11:35:11;100040.63;;;30.69;90.47
54808;BME280;40708;50.364;7.550;2023-06-19T11:37:40;100032.66;;;31.27;86.66
54808;BME280;40708;50.364;7.550;2023-06-19T11:40:07;100036.75;;;31.02;85.68
54808;BME280;40708;50.364;7.550;2023-06-19T11:42:47;100039.44;;;31.32;82.79
54808;BME280;40708;50.364;7.550;2023-06-19T11:45:13;100031.50;;;31.29;82.88
54808;BME280;40708;50.364;7.550;2023-06-19T11:47:38;100032.91;;;31.14;86.78
54808;BME280;40708;50.364;7.550;2023-06-19T11:50:04;100020.19;;;31.62;78.47
54808;BME280;40708;50.364;7.550;2023-06-19T11:52:30;100022.50;;;31.67;80.42
54808;BME280;40708;50.364;7.550;2023-06-19T11:54:55;100027.09;;;31.66;80.62
54808;BME280;40708;50.364;7.550;2023-06-19T11:57:20;100029.88;;;31.76;79.59
54808;BME280;40708;50.364;7.550;2023-06-19T11:59:46;100026.72;;;32.09;72.41
54808;BME280;40708;50.364;7.550;2023-06-19T12:02:12;100025.25;;;32.24;71.59
54808;BME280;40708;50.364;7.550;2023-06-19T12:04:37;100018.84;;;32.43;70.24
54808;BME280;40708;50.364;7.550;2023-06-19T12:07:03;100010.06;;;32.39;68.10
54808;BME280;40708;50.364;7.550;2023-06-19T12:09:29;100023.22;;;32.07;69.46
54808;BME280;40708;50.364;7.550;2023-06-19T12:11:55;100023.50;;;32.33;68.46
54808;BME280;40708;50.364;7.550;2023-06-19T12:14:20;100027.88;;;32.07;67.72
54808;BME280;40708;50.364;7.550;2023-06-19T12:16:46;100026.25;;;31.75;74.91
54808;BME280;40708;50.364;7.550;2023-06-19T12:19:11;100033.63;;;31.94;74.38
54808;BME280;40708;50.364;7.550;2023-06-19T12:21:37;100023.06;;;32.18;71.04
54808;BME280;40708;50.364;7.550;2023-06-19T12:24:02;100031.88;;;31.83;78.03
54808;BME280;40708;50.364;7.550;2023-06-19T12:26:27;100027.41;;;32.21;72.84
54808;BME280;40708;50.364;7.550;2023-06-19T12:28:53;100032.19;;;32.19;70.97
54808;BME280;40708;50.364;7.550;2023-06-19T12:31:18;100024.66;;;32.30;65.33
54808;BME280;40708;50.364;7.550;2023-06-19T12:33:44;100028.97;;;31.56;77.07
54808;BME280;40708;50.364;7.550;2023-06-19T12:36:14;100036.69;;;31.22;82.28
54808;BME280;40708;50.364;7.550;2023-06-19T12:38:40;100031.47;;;31.69;73.01
54808;BME280;40708;50.364;7.550;2023-06-19T12:41:05;100029.88;;;31.76;74.65
54808;BME280;40708;50.364;7.550;2023-06-19T12:43:31;100033.75;;;31.64;78.75
54808;BME280;40708;50.364;7.550;2023-06-19T12:45:59;100028.00;;;31.76;74.23